Wind from 135 at 5 knots gusting 7

Air temperature 18.9° C
Dewpoint 6.0° C

Last reported at 2014-Apr-23 20:15 UTC.
Time now 2014-Apr-24 10:57 UTC

Location: N 38°03' E 023°51'.
View on Google Maps.

See reports from other nearby stations

Tides Stations Pressure Air Temp Water Temp Dewpoint Dewpoint depression Visibility Wind Speed Wind Dir Waves Ship positions

  
sailing weather and tide predictions

SV1LH-1 Melissia GR weather

date/time (UTC)wind fromknots sea level pressurealtimeterstation pressurevisibilityair tempwater tempwave heightnotes
2014-Apr-23 20:15 135 5 gusting 7 18.9
2014-Apr-23 20:10 112 6 gusting 8 19.4
2014-Apr-23 20:05 090 7 gusting 9 19.4
2014-Apr-23 20:00 090 7 gusting 11 19.4
2014-Apr-23 19:55 112 8 gusting 12 20.0
2014-Apr-23 19:50 112 6 gusting 11 20.0
2014-Apr-23 19:45 090 8 gusting 10 20.0
2014-Apr-23 19:40 090 8 gusting 13 20.0
2014-Apr-23 19:35 090 8 gusting 11 20.0
2014-Apr-23 19:30 135 11 gusting 15 20.0
2014-Apr-23 19:25 090 6 gusting 8 20.0
2014-Apr-23 19:20 090 9 gusting 14 19.4
2014-Apr-23 19:15 090 9 gusting 13 19.4
2014-Apr-23 19:10 090 10 gusting 16 19.4
2014-Apr-23 19:05 112 11 gusting 16 19.4
2014-Apr-23 19:00 090 8 gusting 11 18.9
2014-Apr-23 18:55 112 2 gusting 4 18.3
2014-Apr-23 18:50 112 4 gusting 7 17.8
2014-Apr-23 18:45 045 0 gusting 0 17.8
2014-Apr-23 18:40 17.8
2014-Apr-23 18:35 225 17.8
2014-Apr-23 18:30 270 18.3
2014-Apr-23 18:25 225 0 gusting 0 18.3
2014-Apr-23 18:20 225 0 gusting 1 18.3
2014-Apr-23 18:15 157 3 gusting 4 18.3
2014-Apr-23 18:10 180 1 gusting 3 18.3
2014-Apr-23 18:05 135 1 gusting 3 18.3
2014-Apr-23 18:00 180 1 gusting 2 18.9
2014-Apr-23 17:55 135 2 gusting 4 18.9
2014-Apr-23 17:50 202 2 gusting 4 18.9
2014-Apr-23 17:45 180 2 gusting 4 18.9
2014-Apr-23 17:40 090 2 gusting 3 18.9
2014-Apr-23 17:35 135 1 gusting 2 18.9
2014-Apr-23 17:30 157 1 gusting 4 18.9
2014-Apr-23 17:25 090 4 gusting 7 18.9
2014-Apr-23 17:20 157 1 gusting 3 18.9
2014-Apr-23 17:15 112 3 gusting 4 18.9
2014-Apr-23 17:10 135 3 gusting 5 18.9
2014-Apr-23 17:05 135 2 gusting 3 18.9
2014-Apr-23 17:00 112 3 gusting 4 18.9
2014-Apr-23 16:55 202 1 gusting 2 18.9
2014-Apr-23 16:50 180 2 gusting 7 18.9
2014-Apr-23 16:45 112 3 gusting 4 18.9
2014-Apr-23 16:40 157 2 gusting 3 19.4
2014-Apr-23 16:35 180 0 gusting 3 19.4
2014-Apr-23 16:30 180 2 gusting 4 19.4
2014-Apr-23 16:25 135 1 gusting 3 20.0
2014-Apr-23 16:20 157 1 gusting 3 20.0
2014-Apr-23 16:15 135 20.0
2014-Apr-23 16:10 202 2 gusting 3 20.6
2014-Apr-23 16:05 135 1 gusting 2 20.6
2014-Apr-23 16:00 180 0 gusting 1 21.1
2014-Apr-23 15:55 090 21.1
2014-Apr-23 15:50 135 2 gusting 4 21.1
2014-Apr-23 15:45 135 0 gusting 2 21.7
2014-Apr-23 15:40 180 0 gusting 0 22.2
2014-Apr-23 15:35 112 2 gusting 4 22.2
2014-Apr-23 15:30 112 1 gusting 3 21.7
2014-Apr-23 15:25 135 1 gusting 2 21.7
2014-Apr-23 15:20 112 4 gusting 6 21.1
2014-Apr-23 15:15 090 1 gusting 2 21.1
2014-Apr-23 15:10 045 4 gusting 6 21.7
2014-Apr-23 15:05 157 0 gusting 2 21.7
2014-Apr-23 15:00 135 0 gusting 0 21.7
2014-Apr-23 14:55 135 3 gusting 5 22.2
2014-Apr-23 14:50 157 3 gusting 6 22.8
2014-Apr-23 14:45 067 3 gusting 6 23.3
2014-Apr-23 14:40 112 3 gusting 5 23.3
2014-Apr-23 14:35 180 3 gusting 6 22.2
2014-Apr-23 14:30 180 1 gusting 2 21.7
2014-Apr-23 14:25 045 1 gusting 2 22.2
2014-Apr-23 14:20 112 1 gusting 3 22.2
2014-Apr-23 14:15 090 1 gusting 5 22.8
2014-Apr-23 14:10 135 2 gusting 4 22.8
2014-Apr-23 14:05 135 2 gusting 6 22.8
2014-Apr-23 14:00 112 2 gusting 5 22.8
2014-Apr-23 13:55 045 3 gusting 6 22.2
2014-Apr-23 13:50 067 5 gusting 9 21.1
2014-Apr-23 13:45 090 5 gusting 7 21.1
2014-Apr-23 13:40 112 7 gusting 9 21.1
2014-Apr-23 13:35 090 4 gusting 6 21.1
2014-Apr-23 13:30 090 5 gusting 6 21.7
2014-Apr-23 13:25 135 5 gusting 7 21.7
2014-Apr-23 13:20 090 1 gusting 3 21.7
2014-Apr-23 13:15 090 2 gusting 4 21.7
2014-Apr-23 13:10 090 4 gusting 6 21.7
2014-Apr-23 13:05 135 1 gusting 3 21.7
2014-Apr-23 13:00 180 4 gusting 6 21.7
2014-Apr-23 12:55 135 4 gusting 6 22.2
2014-Apr-23 12:50 180 3 gusting 4 22.2
2014-Apr-23 12:45 180 2 gusting 6 22.2
2014-Apr-23 12:40 180 1 gusting 2 22.2
2014-Apr-23 12:35 090 6 gusting 10 22.8
2014-Apr-23 12:30 135 5 gusting 7 23.3
2014-Apr-23 12:25 112 4 gusting 6 23.9
2014-Apr-23 12:20 135 2 gusting 4 23.9
2014-Apr-23 12:15 135 5 gusting 7 24.4
2014-Apr-23 12:10 112 4 gusting 6 25.6
2014-Apr-23 12:05 090 5 gusting 8 25.6
2014-Apr-23 12:00 180 5 gusting 7 24.4
2014-Apr-23 11:55 112 5 gusting 8 24.4
2014-Apr-23 11:50 135 5 gusting 7 25.6
2014-Apr-23 11:44 112 6 gusting 10 26.1
2014-Apr-23 11:40 180 6 gusting 9 26.7
2014-Apr-23 11:35 067 3 gusting 6 26.1
2014-Apr-23 11:30 112 5 gusting 9 25.6
2014-Apr-23 11:25 135 5 gusting 8 25.0
2014-Apr-23 11:20 112 5 gusting 7 24.4
2014-Apr-23 11:15 090 6 gusting 12 23.9
2014-Apr-23 11:10 112 7 gusting 11 23.9
2014-Apr-23 11:05 067 6 gusting 7 23.3
2014-Apr-23 11:00 112 5 gusting 6 23.3
2014-Apr-23 10:55 157 4 gusting 10 23.3
2014-Apr-23 10:50 090 3 gusting 6 22.8
2014-Apr-23 10:45 112 6 gusting 10 23.3
2014-Apr-23 10:40 112 5 gusting 7 23.3
2014-Apr-23 10:35 090 6 gusting 9 23.3
2014-Apr-23 10:30 157 5 gusting 8 23.3
2014-Apr-23 10:25 135 6 gusting 11 23.9
2014-Apr-23 10:20 090 5 gusting 8 23.9
2014-Apr-23 10:15 157 3 gusting 6 24.4
2014-Apr-23 10:10 090 4 gusting 6 25.0
2014-Apr-23 10:05 225 4 gusting 6 25.0
2014-Apr-23 10:00 112 2 gusting 4 25.0
2014-Apr-23 09:55 090 2 gusting 4 24.4
2014-Apr-23 09:50 112 5 gusting 7 24.4
2014-Apr-23 09:45 090 4 gusting 5 25.0
2014-Apr-23 09:40 225 24.4
2014-Apr-23 09:35 112 2 gusting 4 24.4
2014-Apr-23 09:30 180 2 gusting 4 23.9
2014-Apr-23 09:25 180 0 gusting 2 23.9
2014-Apr-23 09:20 157 1 gusting 3 23.9
2014-Apr-23 09:15 135 2 gusting 4 23.9
2014-Apr-23 09:10 112 2 gusting 4 24.4
2014-Apr-23 09:05 112 2 gusting 5 24.4
2014-Apr-23 09:00 112 3 gusting 4 25.0
2014-Apr-23 08:55 157 1 gusting 4 25.0
2014-Apr-23 08:50 067 3 gusting 5 25.0
2014-Apr-23 08:45 225 0 gusting 3 24.4
2014-Apr-23 08:40 270 3 gusting 4 23.9
2014-Apr-23 08:35 315 1 gusting 3 23.9
2014-Apr-23 08:30 292 1 gusting 3 23.3
2014-Apr-23 08:25 247 1 gusting 2 22.8
2014-Apr-23 08:20 202 1 gusting 3 22.8
2014-Apr-23 08:15 135 1 gusting 3 22.8
2014-Apr-23 08:10 225 22.2
2014-Apr-23 08:05 202 1 gusting 2 22.2
2014-Apr-23 08:00 180 3 gusting 4 22.2
2014-Apr-23 07:55 247 2 gusting 4 22.8
2014-Apr-23 07:50 247 2 gusting 3 23.3
2014-Apr-23 07:45 180 0 gusting 3 22.8
2014-Apr-23 07:40 135 0 gusting 2 22.2
2014-Apr-23 07:35 112 1 gusting 3 21.7
2014-Apr-23 07:30 090 2 gusting 4 21.7
2014-Apr-23 07:25 112 4 gusting 6 21.7
2014-Apr-23 07:20 135 2 gusting 4 21.7
2014-Apr-23 07:15 180 0 gusting 1 21.7
2014-Apr-23 07:10 202 1 gusting 3 21.7
2014-Apr-23 07:05 202 0 gusting 1 22.2
2014-Apr-23 07:00 315 22.2
2014-Apr-23 06:55 292 0 gusting 1 22.2
2014-Apr-23 06:50 202 0 gusting 2 22.2
2014-Apr-23 06:45 202 0 gusting 1 21.7
2014-Apr-23 06:40 112 1 gusting 3 21.7
2014-Apr-23 06:35 090 1 gusting 1 21.7
2014-Apr-23 06:30 090 0 gusting 1 21.7
2014-Apr-23 06:25 112 0 gusting 2 22.2
2014-Apr-23 06:20 067 21.7
2014-Apr-23 06:15 045 0 gusting 2 21.7
2014-Apr-23 06:10 090 21.7
2014-Apr-23 06:05 022 22.2
2014-Apr-23 06:00 112 22.2
2014-Apr-23 05:55 090 22.8
2014-Apr-23 05:50 315 0 gusting 0 22.2
2014-Apr-23 05:45 090 21.1
2014-Apr-23 05:40 112 20.6
2014-Apr-23 05:35 067 0 gusting 1 20.0
2014-Apr-23 05:30 045 1 gusting 1 18.9
2014-Apr-23 05:25 112 2 gusting 3 18.9
2014-Apr-23 05:20 135 0 gusting 3 18.9
2014-Apr-23 05:15 067 2 gusting 4 18.3
2014-Apr-23 05:10 045 1 gusting 3 17.8
2014-Apr-23 05:05 090 1 gusting 2 17.2
2014-Apr-23 05:00 090 0 gusting 1 17.8
2014-Apr-23 04:55 090 0 gusting 0 17.8
2014-Apr-23 04:50 090 0 gusting 3 17.8
2014-Apr-23 04:45 045 1 gusting 2 17.2
2014-Apr-23 04:40 090 2 gusting 2 17.2
2014-Apr-23 04:35 112 2 gusting 3 16.7
2014-Apr-23 04:30 090 2 gusting 2 16.7
2014-Apr-23 04:25 090 1 gusting 1 16.7
2014-Apr-23 04:20 067 1 gusting 3 16.1
2014-Apr-23 04:15 090 2 gusting 3 16.1
2014-Apr-23 04:10 112 3 gusting 4 16.1
2014-Apr-23 04:05 090 2 gusting 4 16.1
2014-Apr-23 04:00 090 2 gusting 3 16.1
2014-Apr-23 03:55 090 2 gusting 3 15.6
2014-Apr-23 03:50 090 3 gusting 6 15.6
2014-Apr-23 03:45 090 1 gusting 3 15.6
2014-Apr-23 03:40 090 3 gusting 4 15.6
2014-Apr-23 03:35 090 2 gusting 4 15.6
2014-Apr-23 03:30 090 3 gusting 5 15.0
2014-Apr-23 03:25 090 1 gusting 2 15.0
2014-Apr-23 03:20 090 1 gusting 3 15.0
2014-Apr-23 03:15 067 2 gusting 3 15.0
2014-Apr-23 03:10 090 2 gusting 4 14.4
2014-Apr-23 03:05 090 2 gusting 3 14.4
2014-Apr-23 03:00 090 2 gusting 3 14.4
2014-Apr-23 02:55 090 2 gusting 3 13.9
2014-Apr-23 02:50 067 2 gusting 3 13.9
2014-Apr-23 02:45 045 2 gusting 6 13.3
2014-Apr-23 02:40 090 0 gusting 3 13.3
2014-Apr-23 02:35 090 0 gusting 1 13.3
2014-Apr-23 02:30 045 13.3
2014-Apr-23 02:25 13.3
2014-Apr-23 02:20 067 13.3
2014-Apr-23 02:15 067 0 gusting 2 12.8
2014-Apr-23 02:10 090 1 gusting 3 12.8
2014-Apr-23 02:05 045 0 gusting 0 12.8
2014-Apr-23 02:00 090 12.8
2014-Apr-23 01:55 090 12.8
2014-Apr-23 01:50 022 12.8
2014-Apr-23 01:45 067 12.8
2014-Apr-23 01:40 090 1 gusting 2 12.8
2014-Apr-23 01:35 090 0 gusting 1 12.8
2014-Apr-23 01:30 090 0 gusting 0 12.8
2014-Apr-23 01:25 022 0 gusting 3 12.8
2014-Apr-23 01:20 090 1 gusting 2 12.8
2014-Apr-23 01:15 090 0 gusting 0 12.8
2014-Apr-23 01:10 090 0 gusting 0 12.8
2014-Apr-23 01:05 090 0 gusting 1 12.8
2014-Apr-23 01:00 090 12.8
2014-Apr-23 00:55 090 0 gusting 0 12.8
2014-Apr-23 00:50 090 0 gusting 2 12.8
2014-Apr-23 00:45 067 0 gusting 1 12.8
2014-Apr-23 00:40 045 12.8
2014-Apr-23 00:35 045 12.8
2014-Apr-23 00:30 067 12.8
2014-Apr-23 00:25 090 13.3
2014-Apr-23 00:20 090 12.8
2014-Apr-23 00:15 045 13.3
2014-Apr-23 00:10 045 13.3
2014-Apr-23 00:05 090 13.3
2014-Apr-23 00:00 090 13.3
2014-Apr-22 23:55 022 13.9
2014-Apr-22 23:50 337 13.9
2014-Apr-22 23:45 022 13.9
2014-Apr-22 23:40 13.9
2014-Apr-22 23:35 13.9
2014-Apr-22 23:30 090 0 gusting 3 13.9
2014-Apr-22 23:25 112 0 gusting 1 13.9
2014-Apr-22 23:20 112 1 gusting 1 13.9
2014-Apr-22 23:15 090 1 gusting 2 13.3
2014-Apr-22 23:10 090 13.3
2014-Apr-22 23:05 045 13.3
2014-Apr-22 23:00 045 13.3
2014-Apr-22 22:55 067 13.3
2014-Apr-22 22:50 090 0 gusting 1 13.3
2014-Apr-22 22:45 067 13.9
2014-Apr-22 22:40 067 13.9
2014-Apr-22 22:35 090 0 gusting 0 13.9
2014-Apr-22 22:30 045 0 gusting 0 13.9
2014-Apr-22 22:25 090 13.9
2014-Apr-22 22:20 067 14.4
2014-Apr-22 22:15 135 14.4
2014-Apr-22 22:10 157 14.4
2014-Apr-22 22:05 090 15.0
2014-Apr-22 22:00 292 15.0
2014-Apr-22 21:55 270 15.6
2014-Apr-22 21:50 090 15.6
2014-Apr-22 21:45 090 1 gusting 3 15.6
2014-Apr-22 21:40 112 1 gusting 1 15.0
2014-Apr-22 21:35 090 1 gusting 1 15.0
2014-Apr-22 21:30 090 0 gusting 2 15.0
2014-Apr-22 21:25 090 0 gusting 2 14.4
2014-Apr-22 21:20 090 14.4
2014-Apr-22 21:15 090 14.4
2014-Apr-22 21:10 045 15.0
2014-Apr-22 21:05 090 15.0
2014-Apr-22 21:00 090 0 gusting 3 15.0
2014-Apr-22 20:55 090 15.0
2014-Apr-22 20:50 090 15.6
2014-Apr-22 20:45 292 16.1
2014-Apr-22 20:40 270 16.1
2014-Apr-22 20:35 135 1 gusting 2 16.1
2014-Apr-22 20:30 090 1 gusting 3 15.6
2014-Apr-22 20:25 090 1 gusting 2 15.0
2014-Apr-22 20:20 112 0 gusting 3 15.0
2014-Apr-22 20:15 090 0 gusting 3 15.0
2014-Apr-22 20:10 090 1 gusting 3 14.4
2014-Apr-22 20:05 090 1 gusting 3 14.4
2014-Apr-22 20:00 090 1 gusting 2 14.4
2014-Apr-22 19:55 067 0 gusting 3 14.4
2014-Apr-22 19:50 067 1 gusting 1 14.4
2014-Apr-22 19:45 112 0 gusting 1 14.4
2014-Apr-22 19:40 112 14.4
2014-Apr-22 19:35 067 0 gusting 1 14.4
2014-Apr-22 19:30 090 2 gusting 3 14.4
2014-Apr-22 19:25 112 1 gusting 3 14.4
2014-Apr-22 19:20 090 2 gusting 3 14.4
2014-Apr-22 19:15 112 0 gusting 1 13.9
2014-Apr-22 19:10 112 1 gusting 3 13.9
2014-Apr-22 19:05 112 14.4
2014-Apr-22 19:00 022 14.4
2014-Apr-22 18:55 067 0 gusting 2 14.4
2014-Apr-22 18:50 090 0 gusting 1 14.4
2014-Apr-22 18:45 090 14.4
2014-Apr-22 18:40 292 14.4
2014-Apr-22 18:35 292 14.4
2014-Apr-22 18:30 14.4
2014-Apr-22 18:25 022 15.0
2014-Apr-22 18:20 022 15.0
2014-Apr-22 18:15 15.0
2014-Apr-22 18:10 045 15.0
2014-Apr-22 18:05 135 15.6
2014-Apr-22 18:00 202 15.6
2014-Apr-22 17:55 157 15.6
2014-Apr-22 17:50 157 16.1
2014-Apr-22 17:45 067 16.1
2014-Apr-22 17:40 202 16.7
2014-Apr-22 17:35 202 0 gusting 0 16.7
2014-Apr-22 17:30 292 16.7
2014-Apr-22 17:25 292 17.2
2014-Apr-22 17:20 202 17.2
2014-Apr-22 17:15 202 17.2
2014-Apr-22 17:10 157 17.8
2014-Apr-22 17:05 17.8
2014-Apr-22 17:00 157 0 gusting 2 18.3
2014-Apr-22 16:55 135 1 gusting 2 18.3
2014-Apr-22 16:50 247 18.3
2014-Apr-22 16:45 270 0 gusting 0 18.9
2014-Apr-22 16:40 157 0 gusting 1 18.9
2014-Apr-22 16:35 202 18.9
2014-Apr-22 16:30 090 1 gusting 3 18.9
2014-Apr-22 16:25 135 18.9
2014-Apr-22 16:20 180 19.4
2014-Apr-22 16:15 157 19.4
2014-Apr-22 16:10 090 1 gusting 3 19.4
2014-Apr-22 16:05 112 0 gusting 0 19.4
2014-Apr-22 16:00 180 0 gusting 0 19.4
2014-Apr-22 15:55 135 1 gusting 2 20.0
2014-Apr-22 15:50 157 2 gusting 3 20.0
2014-Apr-22 15:45 135 2 gusting 4 20.6
2014-Apr-22 15:40 067 1 gusting 2 21.1
2014-Apr-22 15:35 180 1 gusting 3 21.7
2014-Apr-22 15:30 247 21.7
2014-Apr-22 15:25 202 21.7
2014-Apr-22 15:20 292 22.2
2014-Apr-22 15:15 315 22.2
2014-Apr-22 15:10 022 22.2
2014-Apr-22 15:05 22.2
2014-Apr-22 15:00 180 22.2
2014-Apr-22 14:55 157 21.7
2014-Apr-22 14:50 135 21.7
2014-Apr-22 14:45 112 22.2
2014-Apr-22 14:40 202 22.2
2014-Apr-22 14:35 157 0 gusting 3 22.2
2014-Apr-22 14:30 157 1 gusting 2 22.8
2014-Apr-22 14:25 067 22.8
2014-Apr-22 14:20 112 1 gusting 3 23.3
2014-Apr-22 14:15 157 1 gusting 3 23.9
2014-Apr-22 14:10 202 0 gusting 3 24.4
2014-Apr-22 14:05 202 25.0
2014-Apr-22 14:00 157 1 gusting 2 25.0
2014-Apr-22 13:55 112 1 gusting 1 25.6
2014-Apr-22 13:50 180 2 gusting 3 25.6
2014-Apr-22 13:45 202 0 gusting 2 25.6
2014-Apr-22 13:40 180 1 gusting 2 25.6
2014-Apr-22 13:35 135 2 gusting 3 25.6
2014-Apr-22 13:30 202 2 gusting 3 26.1
2014-Apr-22 13:25 180 26.1
2014-Apr-22 13:20 225 0 gusting 1 26.7
2014-Apr-22 13:15 247 1 gusting 2 26.7
2014-Apr-22 13:10 270 0 gusting 1 27.2
2014-Apr-22 13:05 202 27.2
2014-Apr-22 13:00 315 1 gusting 2 27.8
2014-Apr-22 12:55 225 0 gusting 3 27.8
2014-Apr-22 12:50 247 1 gusting 7 27.2
2014-Apr-22 12:45 247 1 gusting 4 27.2
2014-Apr-22 12:40 270 26.7
2014-Apr-22 12:35 202 2 gusting 4 26.7
2014-Apr-22 12:30 225 4 gusting 5 26.7
2014-Apr-22 12:25 180 1 gusting 2 26.7
2014-Apr-22 12:20 180 3 gusting 5 26.7
2014-Apr-22 12:15 180 4 gusting 6 26.7
2014-Apr-22 12:10 180 2 gusting 4 27.2
2014-Apr-22 12:05 225 26.1
2014-Apr-22 12:00 180 2 gusting 4 25.6
2014-Apr-22 11:55 157 2 gusting 3 25.6
2014-Apr-22 11:50 157 1 gusting 3 25.0
2014-Apr-22 11:45 180 2 gusting 4 25.6
2014-Apr-22 11:40 135 0 gusting 1 25.6
2014-Apr-22 11:35 045 2 gusting 3 25.0
2014-Apr-22 11:30 180 2 gusting 3 24.4
2014-Apr-22 11:25 157 2 gusting 3 24.4
2014-Apr-22 11:20 067 2 gusting 7 23.9
2014-Apr-22 11:15 157 5 gusting 7 23.9
2014-Apr-22 11:10 135 2 gusting 4 24.4
2014-Apr-22 11:05 157 3 gusting 6 24.4
2014-Apr-22 11:00 180 4 gusting 5 25.0
2014-Apr-22 10:55 157 3 gusting 6 25.6
2014-Apr-22 10:50 180 3 gusting 4 25.6
2014-Apr-22 10:45 180 3 gusting 6 26.7
2014-Apr-22 10:40 157 0 gusting 1 26.7
2014-Apr-22 10:35 247 2 gusting 3 26.7
2014-Apr-22 10:30 135 3 gusting 7 26.1
2014-Apr-22 10:25 202 4 gusting 6 26.1
2014-Apr-22 10:20 202 4 gusting 7 26.7